createdAt,value
2019-05-13T00:00:37.421Z,8.97
2019-05-13T00:05:44.763Z,14.70
2019-05-13T00:10:53.988Z,11.50
2019-05-13T00:16:00.448Z,9.53
2019-05-13T00:26:14.095Z,6.37
2019-05-13T00:31:21.409Z,15.08
2019-05-13T00:51:46.611Z,9.55
2019-05-13T00:56:54.837Z,9.20
2019-05-13T01:02:03.676Z,7.83
2019-05-13T01:07:24.421Z,9.38
2019-05-13T01:12:19.425Z,10.63
2019-05-13T01:17:26.459Z,9.13
2019-05-13T01:22:34.385Z,9.75
2019-05-13T01:27:43.987Z,9.35
2019-05-13T01:32:53.850Z,8.48
2019-05-13T01:38:00.416Z,8.85
2019-05-13T01:43:07.462Z,6.97
2019-05-13T01:48:14.590Z,6.42
2019-05-13T01:53:21.432Z,11.80
2019-05-13T01:58:28.450Z,8.03
2019-05-13T02:03:35.425Z,8.25
2019-05-13T02:08:43.975Z,9.18
2019-05-13T02:13:53.764Z,9.25
2019-05-13T02:19:00.368Z,11.12
2019-05-13T02:24:07.456Z,12.53
2019-05-13T02:29:14.568Z,10.08
2019-05-13T02:34:23.155Z,11.28
2019-05-13T02:39:32.918Z,13.95
2019-05-13T02:44:43.481Z,5.97
2019-05-13T02:49:48.585Z,10.60
2019-05-13T02:54:55.457Z,7.70
2019-05-13T03:00:03.941Z,12.40
2019-05-13T03:05:13.680Z,10.65
2019-05-13T03:10:22.406Z,7.33
2019-05-13T03:15:32.914Z,10.93
2019-05-13T03:20:42.861Z,10.07
2019-05-13T03:25:48.469Z,12.90
2019-05-13T03:30:56.952Z,10.55
2019-05-13T03:36:07.575Z,16.25
2019-05-13T03:41:15.587Z,9.58
2019-05-13T03:46:25.551Z,12.65
2019-05-13T03:51:32.827Z,7.37
2019-05-13T03:56:42.640Z,13.62
2019-05-13T04:01:52.444Z,13.22
2019-05-13T04:07:02.694Z,11.43
2019-05-13T04:12:08.597Z,11.10
2019-05-13T04:17:15.467Z,8.88
2019-05-13T04:22:23.200Z,13.43
2019-05-13T04:27:32.674Z,11.38
2019-05-13T04:32:39.437Z,8.95
2019-05-13T04:37:46.447Z,18.60
2019-05-13T04:42:54.080Z,11.40
2019-05-13T04:48:03.311Z,12.75
2019-05-13T04:53:13.707Z,12.85
2019-05-13T04:58:23.359Z,13.32
2019-05-13T05:03:46.124Z,16.55
2019-05-13T05:10:15.848Z,12.55
2019-05-13T05:16:21.994Z,13.98
2019-05-13T05:21:36.733Z,14.78
2019-05-13T05:28:01.961Z,15.20
2019-05-13T05:33:44.559Z,12.13
2019-05-13T05:39:08.570Z,12.82
2019-05-13T05:44:15.586Z,12.55
2019-05-13T05:49:25.231Z,10.55
2019-05-13T05:54:36.733Z,9.58
2019-05-13T05:59:43.693Z,13.70
2019-05-13T06:04:52.070Z,13.20
2019-05-13T06:10:02.275Z,16.45
2019-05-13T06:15:12.189Z,17.07
2019-05-13T06:20:21.178Z,14.23
2019-05-13T06:25:33.748Z,18.44
2019-05-13T06:30:41.463Z,17.60
2019-05-13T06:35:48.095Z,16.10
2019-05-13T06:41:02.645Z,14.23
2019-05-13T06:46:04.417Z,17.37
2019-05-13T06:51:11.688Z,11.35
2019-05-13T06:56:18.667Z,12.10
2019-05-13T07:01:25.576Z,12.90
2019-05-13T07:06:32.612Z,14.50
2019-05-13T07:11:41.671Z,13.58
2019-05-13T07:16:48.435Z,7.95
2019-05-13T07:21:55.432Z,8.90
2019-05-13T07:27:02.613Z,12.68
2019-05-13T07:32:11.995Z,8.48
2019-05-13T07:37:18.577Z,9.78
2019-05-13T07:42:34.737Z,10.20
2019-05-13T07:47:41.970Z,9.80
2019-05-13T07:52:51.510Z,14.25
2019-05-13T07:57:58.421Z,7.37
2019-05-13T08:03:05.431Z,6.72
2019-05-13T08:08:12.573Z,7.60
2019-05-13T08:13:22.463Z,6.10
2019-05-13T08:18:31.683Z,9.53
2019-05-13T08:23:38.465Z,11.65
2019-05-13T08:29:00.041Z,8.45
2019-05-13T08:33:54.405Z,5.78
2019-05-13T08:39:02.670Z,5.87
2019-05-13T08:44:12.360Z,5.72
2019-05-13T08:49:21.977Z,17.12
2019-05-13T08:54:29.423Z,6.97
2019-05-13T08:59:36.443Z,6.75
2019-05-13T09:04:44.851Z,9.10
2019-05-13T09:09:51.625Z,6.42
2019-05-13T09:14:58.866Z,8.93
2019-05-13T09:20:06.834Z,6.62
2019-05-13T09:25:14.075Z,12.82
2019-05-13T09:30:22.310Z,12.33
2019-05-13T09:35:31.595Z,7.62
2019-05-13T09:40:42.094Z,5.58
2019-05-13T09:45:48.444Z,24.98
2019-05-13T09:50:55.585Z,7.30
2019-05-13T09:56:02.717Z,5.62
2019-05-13T10:01:12.396Z,6.93
2019-05-13T10:06:21.860Z,10.43
2019-05-13T10:11:28.566Z,9.35
2019-05-13T10:16:36.253Z,5.60
2019-05-13T10:21:44.970Z,3.42
2019-05-13T10:26:53.067Z,6.05
2019-05-13T10:32:02.767Z,8.28
2019-05-13T10:37:11.326Z,7.70
2019-05-13T10:42:18.573Z,6.05
2019-05-13T10:47:25.597Z,9.10
2019-05-13T10:52:32.456Z,5.25
2019-05-13T10:57:42.324Z,10.18
2019-05-13T11:02:48.462Z,11.63
2019-05-13T11:07:55.561Z,7.67
2019-05-13T11:13:06.021Z,7.53
2019-05-13T11:18:18.983Z,7.03
2019-05-13T11:23:23.299Z,6.55
2019-05-13T11:28:31.732Z,7.40
2019-05-13T11:33:42.223Z,8.28
2019-05-13T11:38:48.577Z,6.83
2019-05-13T11:44:12.043Z,4.03
2019-05-13T11:49:04.578Z,5.22
2019-05-13T11:54:13.824Z,5.90
2019-05-13T11:59:22.033Z,7.10
2019-05-13T12:04:29.426Z,5.93
2019-05-13T12:09:36.466Z,5.05
2019-05-13T12:15:04.870Z,3.58
2019-05-13T12:19:54.324Z,6.37
2019-05-13T12:25:02.191Z,6.10
2019-05-13T12:30:09.598Z,9.45
2019-05-13T12:35:16.576Z,6.37
2019-05-13T12:40:23.600Z,5.33
2019-05-13T12:45:30.441Z,3.77
2019-05-13T12:50:37.566Z,3.67
2019-05-13T12:55:51.840Z,5.80
2019-05-13T13:00:53.806Z,3.45
2019-05-13T13:06:25.677Z,4.65
2019-05-13T13:11:11.772Z,9.08
2019-05-13T13:16:18.768Z,4.33
2019-05-13T13:21:33.222Z,3.67
2019-05-13T13:26:34.498Z,4.92
2019-05-13T13:31:43.370Z,6.15
2019-05-13T13:36:52.644Z,6.25
2019-05-13T13:42:04.889Z,9.40
2019-05-13T13:47:08.560Z,7.72
2019-05-13T13:52:16.582Z,5.28
2019-05-13T13:57:25.619Z,7.83
2019-05-13T14:02:36.900Z,5.67
2019-05-13T14:07:42.407Z,4.55
2019-05-13T14:12:52.686Z,8.70
2019-05-13T14:18:00.253Z,4.08
2019-05-13T14:23:07.588Z,4.97
2019-05-13T14:28:17.629Z,2.95
2019-05-13T14:33:23.450Z,8.60
2019-05-13T14:38:32.679Z,5.33
2019-05-13T14:43:39.465Z,6.55
2019-05-13T14:48:48.091Z,6.08
2019-05-13T14:53:55.392Z,7.62
2019-05-13T14:59:02.771Z,6.53
2019-05-13T15:09:18.043Z,5.78
2019-05-13T15:14:25.554Z,5.03
2019-05-13T15:19:32.692Z,3.42
2019-05-13T15:24:41.299Z,9.00
2019-05-13T15:29:51.934Z,4.25
2019-05-13T15:34:59.089Z,4.17
2019-05-13T15:40:08.285Z,4.30
2019-05-13T15:45:15.613Z,5.67
2019-05-13T15:50:23.255Z,2.77
2019-05-13T16:05:42.516Z,2.03
2019-05-13T16:10:49.495Z,2.22
2019-05-13T16:16:01.325Z,2.85
2019-05-13T16:21:07.703Z,4.78
2019-05-13T16:26:14.611Z,5.03
2019-05-13T16:31:22.296Z,3.22
2019-05-13T16:36:31.363Z,5.10
2019-05-13T16:45:22.081Z,9.85
2019-05-13T16:50:31.333Z,2.88
2019-05-13T16:55:38.549Z,3.07
2019-05-13T17:00:46.802Z,2.67
2019-05-13T17:05:54.974Z,2.75
2019-05-13T17:11:04.183Z,4.33
2019-05-13T17:16:12.004Z,6.05
2019-05-13T17:21:21.150Z,2.87
2019-05-13T17:26:32.522Z,2.83
2019-05-13T17:31:41.677Z,3.98
2019-05-13T17:36:51.901Z,2.90
2019-05-13T17:47:15.858Z,2.00
2019-05-13T17:52:22.694Z,2.47
2019-05-13T17:57:31.914Z,4.45
2019-05-13T18:02:38.468Z,3.35
2019-05-13T18:07:45.565Z,4.87
2019-05-13T18:12:52.585Z,3.50
2019-05-13T18:18:01.610Z,4.35
2019-05-13T18:23:08.582Z,4.60
2019-05-13T18:28:27.478Z,3.22
2019-05-13T18:33:24.445Z,7.03
2019-05-13T18:38:31.491Z,3.75
2019-05-13T18:43:38.476Z,3.75
2019-05-13T18:48:58.088Z,3.02
2019-05-13T18:53:54.436Z,2.42
2019-05-13T18:59:02.025Z,4.05
2019-05-13T19:04:11.431Z,10.90
2019-05-13T19:09:18.484Z,3.35
2019-05-13T19:14:28.071Z,9.65
2019-05-13T19:19:35.465Z,2.25
2019-05-13T19:24:42.445Z,1.95
2019-05-13T19:29:52.182Z,3.65
2019-05-13T19:40:04.611Z,4.90
2019-05-13T19:45:12.662Z,2.83
2019-05-13T19:50:22.351Z,2.90
2019-05-13T19:55:33.691Z,3.30
2019-05-13T20:00:39.580Z,4.13
2019-05-13T20:05:46.512Z,4.72
2019-05-13T20:10:53.581Z,6.25
2019-05-13T20:16:02.290Z,2.50
2019-05-13T20:21:11.165Z,9.55
2019-05-13T20:26:18.604Z,6.92
2019-05-13T20:31:25.669Z,3.77
2019-05-13T20:36:32.617Z,5.00
2019-05-13T20:41:41.388Z,7.92
2019-05-13T20:46:51.923Z,3.08
2019-05-13T20:58:59.026Z,7.50
2019-05-13T21:04:09.263Z,3.58
2019-05-13T21:09:17.253Z,3.08
2019-05-13T21:14:25.762Z,4.40
2019-05-13T21:19:39.231Z,5.03
2019-05-13T21:34:54.435Z,2.97
2019-05-13T21:40:01.563Z,6.28
2019-05-13T21:45:11.210Z,6.60
2019-05-13T21:50:31.111Z,7.35
2019-05-13T21:55:27.572Z,6.10
2019-05-13T22:00:43.147Z,6.68
2019-05-13T22:05:51.565Z,5.75
2019-05-13T22:10:58.577Z,6.97
2019-05-13T22:16:05.598Z,5.25
2019-05-13T22:21:12.455Z,7.05
2019-05-13T22:26:19.594Z,3.37
2019-05-13T22:31:26.471Z,11.30
2019-05-13T22:36:33.445Z,6.47
2019-05-13T22:41:42.108Z,4.45
2019-05-13T22:46:51.589Z,6.67
2019-05-13T22:51:58.461Z,5.33
2019-05-13T22:57:05.502Z,6.37
2019-05-13T23:02:12.579Z,5.80
2019-05-13T23:07:19.559Z,5.20
2019-05-13T23:12:27.582Z,5.37
2019-05-13T23:17:34.498Z,5.08
2019-05-13T23:22:41.623Z,4.95
2019-05-13T23:27:48.451Z,4.58
2019-05-13T23:32:55.457Z,7.97
2019-05-13T23:38:02.580Z,3.55
2019-05-13T23:43:11.333Z,4.47
2019-05-13T23:48:18.475Z,3.83
2019-05-13T23:53:25.450Z,6.37
2019-05-13T23:58:32.576Z,4.03
